Terminal Aerodrome Forecast
Issued by NWS

Home | Current Version | Previous Version | Graphics & Text | Print | Product List | Glossary On
Versions: 1 2 3 4 5 6 7 8 9 10 11 12 13 14 15 16 17 18 19
000
FTUS42 KMHX 271000 AAA
TAFOAJ
TAF AMD
KOAJ 271000Z 2710/2806 VRB05KT P6SM VCSH SCT030 BKN100
      TEMPO 2710/2712 BKN005
     FM271400 19012KT P6SM VCTS SCT030 BKN050CB
     FM271800 19012G20KT P6SM VCTS BKN035CB
     FM280000 20010KT P6SM VCTS BKN030CB
      AMD LTD TO CLD VIS AND WIND=

USA.gov is the U.S. government's official web portal to all federal, state and local government web resources and services.